Flight Track Log - Related Links

Times and Time Zones

All times are in EDT time to prevent confusion due to time zone crossing. See the N775NC flight status page for this flight to view local times or setup timezone preferences in your user account.

Time Position Orientation Groundspeed Altitude Reporting Facility
EDT Latitude Longitude Course Direction KTS MPH feet Rate Location/Type
Sun 01:44:29 PM 34.9700 -82.1936 252° West 236 272 3,500  Level Atlanta Center
Sun 01:45:29 PM 34.9689 -82.2722 269° West 253 291 5,200 2,150 Climbing Atlanta Center
Sun 01:46:00 PM 34.7328 -82.5125 259° West  Level Estimated
Sun 01:46:29 PM 34.9286 -82.3592 241° Southwest 252 290 7,800  Level Atlanta Center
Sun 01:47:00 PM 34.6919 -82.5857 261° West  Level Estimated
Sun 01:47:29 PM 34.8942 -82.4458 244° Southwest 276 318 10,400  Level Atlanta Center
Sun 01:48:00 PM 34.6510 -82.6589 252° West  Level Estimated
Sun 01:48:29 PM 34.8622 -82.5478 249° West 300 345 11,100  Level Atlanta Center
Sun 01:49:29 PM 34.8153 -82.6575 242° Southwest 336 387 13,500 2,200 Climbing Atlanta Center
Sun 01:50:29 PM 34.7644 -82.7594 239° Southwest 349 402 15,500 1,850 Climbing Atlanta Center
Sun 01:51:29 PM 34.7133 -82.8689 240° Southwest 362 417 17,200 1,650 Climbing Atlanta Center
Sun 01:52:29 PM 34.6581 -82.9858 240° Southwest 367 422 18,800 1,550 Climbing Atlanta Center
Sun 01:53:29 PM 34.6067 -83.0975 241° Southwest 372 428 20,300 500 Climbing Atlanta Center
Sun 01:54:29 PM 34.5450 -83.2117 237° Southwest 399 459 19,800 -150 Descending Atlanta Center
Sun 01:55:29 PM 34.4642 -83.3106 225° Southwest 413 475 20,000 -400 Climbing Atlanta Center
Sun 01:56:29 PM 34.3897 -83.4194 230° Southwest 418 481 19,000 -1,100 Descending Atlanta Center
Sun 01:57:29 PM 34.3128 -83.5181 227° Southwest 408 470 17,800 -1,250 Descending Atlanta Center
Sun 01:58:29 PM 34.2464 -83.6142 230° Southwest 398 458 16,500 -1,400 Descending Atlanta Center
Sun 01:59:29 PM 34.1778 -83.7072 228° Southwest 382 440 15,000 -1,250 Descending Atlanta Center
Sun 02:00:29 PM 34.1114 -83.8006 229° Southwest 377 434 14,000 -500 Descending Atlanta Center
Sun 02:01:29 PM 34.0489 -83.8858 229° Southwest 377 434 14,000 -400 Level Atlanta Center
Sun 02:02:29 PM 33.9800 -83.9786 228° Southwest 377 434 13,200 -850 Descending Atlanta Center
Sun 02:03:29 PM 33.9092 -84.0764 229° Southwest 383 441 12,300 -550 Descending Atlanta Center
Sun 02:04:29 PM 33.8358 -84.1739 228° Southwest 388 447 12,100 -150 Descending Atlanta Center
Sun 02:05:29 PM 33.7669 -84.2711 230° Southwest 368 423 12,000 -900 Descending Atlanta Center
Sun 02:06:29 PM 33.7417 -84.3661 252° West 320 368 10,300 -1,850 Descending Atlanta Center
Sun 02:07:29 PM 33.7308 -84.4633 262° West 297 342 8,300 -1,817 Descending Atlanta Center
Sun 02:08:51 PM 33.7333 -84.6000 271° West 283 326 6,000 -1,617 Descending Atlanta TRACON
Sun 02:09:50 PM 33.7000 -84.6500 231° Southwest 262 302 4,500 -1,300 Descending Atlanta TRACON
Sun 02:10:51 PM 33.6500 -84.6000 140° Southeast 243 280 3,400 -1,150 Descending Atlanta TRACON
Sun 02:11:50 PM 33.6500 -84.5167 90° East 214 246 2,200 -1,000 Descending Atlanta TRACON
Sun 02:12:51 PM 33.6500 -84.4667 90° East 158 182 1,400 -787 Descending Atlanta TRACON

Login

Don't have an account? Register now (free) for customized features, flight alerts, and more!